sensor_id;sensor_type;location;lat;lon;timestamp;P1;durP1;ratioP1;P2;durP2;ratioP2
18407;SDS011;9330;52.210;21.174;2023-05-28T00:01:51;12.57;;;7.50;;
18407;SDS011;9330;52.210;21.174;2023-05-28T00:04:20;15.52;;;8.20;;
18407;SDS011;9330;52.210;21.174;2023-05-28T00:06:51;14.90;;;8.35;;
18407;SDS011;9330;52.210;21.174;2023-05-28T00:09:23;13.38;;;7.80;;
18407;SDS011;9330;52.210;21.174;2023-05-28T00:11:52;16.13;;;8.73;;
18407;SDS011;9330;52.210;21.174;2023-05-28T00:14:21;14.55;;;7.95;;
18407;SDS011;9330;52.210;21.174;2023-05-28T00:16:50;13.55;;;8.18;;
18407;SDS011;9330;52.210;21.174;2023-05-28T00:19:19;11.77;;;7.18;;
18407;SDS011;9330;52.210;21.174;2023-05-28T00:21:48;11.68;;;6.72;;
18407;SDS011;9330;52.210;21.174;2023-05-28T00:24:16;11.15;;;7.15;;
18407;SDS011;9330;52.210;21.174;2023-05-28T00:26:44;11.27;;;6.82;;
18407;SDS011;9330;52.210;21.174;2023-05-28T00:29:10;13.85;;;7.60;;
18407;SDS011;9330;52.210;21.174;2023-05-28T00:31:38;14.98;;;7.28;;
18407;SDS011;9330;52.210;21.174;2023-05-28T00:34:05;12.93;;;6.85;;
18407;SDS011;9330;52.210;21.174;2023-05-28T00:36:33;10.43;;;6.18;;
18407;SDS011;9330;52.210;21.174;2023-05-28T00:39:01;11.95;;;5.65;;
18407;SDS011;9330;52.210;21.174;2023-05-28T00:41:30;11.25;;;4.75;;
18407;SDS011;9330;52.210;21.174;2023-05-28T00:44:00;8.05;;;4.60;;
18407;SDS011;9330;52.210;21.174;2023-05-28T00:46:28;6.03;;;4.20;;
18407;SDS011;9330;52.210;21.174;2023-05-28T00:48:55;8.90;;;4.78;;
18407;SDS011;9330;52.210;21.174;2023-05-28T00:51:22;6.90;;;4.20;;
18407;SDS011;9330;52.210;21.174;2023-05-28T00:53:50;7.05;;;4.65;;
18407;SDS011;9330;52.210;21.174;2023-05-28T00:56:18;6.22;;;4.28;;
18407;SDS011;9330;52.210;21.174;2023-05-28T00:58:48;8.55;;;4.00;;
18407;SDS011;9330;52.210;21.174;2023-05-28T01:01:17;7.75;;;4.80;;
18407;SDS011;9330;52.210;21.174;2023-05-28T01:03:46;7.50;;;4.28;;
18407;SDS011;9330;52.210;21.174;2023-05-28T01:06:17;9.80;;;5.30;;
18407;SDS011;9330;52.210;21.174;2023-05-28T01:08:47;7.55;;;4.95;;
18407;SDS011;9330;52.210;21.174;2023-05-28T01:11:19;9.15;;;5.13;;
18407;SDS011;9330;52.210;21.174;2023-05-28T01:13:51;8.52;;;4.82;;
18407;SDS011;9330;52.210;21.174;2023-05-28T01:16:20;6.32;;;4.43;;
18407;SDS011;9330;52.210;21.174;2023-05-28T01:18:53;8.90;;;4.95;;
18407;SDS011;9330;52.210;21.174;2023-05-28T01:21:23;8.40;;;4.40;;
18407;SDS011;9330;52.210;21.174;2023-05-28T01:23:59;5.70;;;4.20;;
18407;SDS011;9330;52.210;21.174;2023-05-28T01:26:28;6.53;;;4.00;;
18407;SDS011;9330;52.210;21.174;2023-05-28T01:28:56;7.88;;;4.05;;
18407;SDS011;9330;52.210;21.174;2023-05-28T01:31:22;5.97;;;3.65;;
18407;SDS011;9330;52.210;21.174;2023-05-28T01:33:49;5.03;;;3.58;;
18407;SDS011;9330;52.210;21.174;2023-05-28T01:36:18;6.32;;;3.67;;
18407;SDS011;9330;52.210;21.174;2023-05-28T01:38:47;7.90;;;3.28;;
18407;SDS011;9330;52.210;21.174;2023-05-28T01:41:20;5.72;;;3.45;;
18407;SDS011;9330;52.210;21.174;2023-05-28T01:43:47;9.63;;;3.40;;
18407;SDS011;9330;52.210;21.174;2023-05-28T01:46:15;5.65;;;4.00;;
18407;SDS011;9330;52.210;21.174;2023-05-28T01:48:42;6.97;;;3.95;;
18407;SDS011;9330;52.210;21.174;2023-05-28T01:51:09;5.05;;;3.38;;
18407;SDS011;9330;52.210;21.174;2023-05-28T01:53:35;5.60;;;3.78;;
18407;SDS011;9330;52.210;21.174;2023-05-28T01:56:02;5.18;;;3.30;;
18407;SDS011;9330;52.210;21.174;2023-05-28T01:58:31;6.70;;;4.10;;
18407;SDS011;9330;52.210;21.174;2023-05-28T02:00:59;5.05;;;3.55;;
18407;SDS011;9330;52.210;21.174;2023-05-28T02:03:33;6.18;;;3.75;;
18407;SDS011;9330;52.210;21.174;2023-05-28T02:06:00;6.38;;;3.25;;
18407;SDS011;9330;52.210;21.174;2023-05-28T02:08:27;7.65;;;3.45;;
18407;SDS011;9330;52.210;21.174;2023-05-28T02:10:53;9.07;;;3.30;;
18407;SDS011;9330;52.210;21.174;2023-05-28T02:13:21;5.93;;;3.50;;
18407;SDS011;9330;52.210;21.174;2023-05-28T02:15:49;6.28;;;3.45;;
18407;SDS011;9330;52.210;21.174;2023-05-28T02:18:16;6.80;;;3.60;;
18407;SDS011;9330;52.210;21.174;2023-05-28T02:20:42;6.93;;;3.47;;
18407;SDS011;9330;52.210;21.174;2023-05-28T02:23:09;5.90;;;3.40;;
18407;SDS011;9330;52.210;21.174;2023-05-28T02:25:36;4.15;;;2.50;;
18407;SDS011;9330;52.210;21.174;2023-05-28T02:28:03;6.32;;;3.35;;
18407;SDS011;9330;52.210;21.174;2023-05-28T02:30:30;6.15;;;3.13;;
18407;SDS011;9330;52.210;21.174;2023-05-28T02:32:58;5.53;;;3.33;;
18407;SDS011;9330;52.210;21.174;2023-05-28T02:35:25;6.15;;;3.30;;
18407;SDS011;9330;52.210;21.174;2023-05-28T02:37:52;6.22;;;2.78;;
18407;SDS011;9330;52.210;21.174;2023-05-28T02:40:19;6.38;;;2.88;;
18407;SDS011;9330;52.210;21.174;2023-05-28T02:42:46;4.55;;;2.85;;
18407;SDS011;9330;52.210;21.174;2023-05-28T02:45:12;4.15;;;3.00;;
18407;SDS011;9330;52.210;21.174;2023-05-28T02:47:39;4.38;;;2.60;;
18407;SDS011;9330;52.210;21.174;2023-05-28T02:50:08;5.72;;;2.92;;
18407;SDS011;9330;52.210;21.174;2023-05-28T02:52:35;4.88;;;2.70;;
18407;SDS011;9330;52.210;21.174;2023-05-28T02:55:02;5.20;;;2.83;;
18407;SDS011;9330;52.210;21.174;2023-05-28T02:57:30;9.40;;;3.58;;
18407;SDS011;9330;52.210;21.174;2023-05-28T02:59:57;5.85;;;3.30;;
18407;SDS011;9330;52.210;21.174;2023-05-28T03:02:24;5.82;;;3.30;;
18407;SDS011;9330;52.210;21.174;2023-05-28T03:04:50;6.45;;;2.92;;
18407;SDS011;9330;52.210;21.174;2023-05-28T03:07:19;4.20;;;3.03;;
18407;SDS011;9330;52.210;21.174;2023-05-28T03:09:47;4.95;;;3.08;;
18407;SDS011;9330;52.210;21.174;2023-05-28T03:12:13;6.88;;;3.35;;
18407;SDS011;9330;52.210;21.174;2023-05-28T03:14:40;6.82;;;3.30;;
18407;SDS011;9330;52.210;21.174;2023-05-28T03:17:07;5.95;;;3.33;;
18407;SDS011;9330;52.210;21.174;2023-05-28T03:19:34;5.25;;;3.15;;
18407;SDS011;9330;52.210;21.174;2023-05-28T03:22:02;5.07;;;2.97;;
18407;SDS011;9330;52.210;21.174;2023-05-28T03:24:30;8.38;;;3.33;;
18407;SDS011;9330;52.210;21.174;2023-05-28T03:26:59;5.53;;;3.05;;
18407;SDS011;9330;52.210;21.174;2023-05-28T03:29:26;4.50;;;2.80;;
18407;SDS011;9330;52.210;21.174;2023-05-28T03:31:53;5.90;;;2.95;;
18407;SDS011;9330;52.210;21.174;2023-05-28T03:34:20;5.68;;;3.30;;
18407;SDS011;9330;52.210;21.174;2023-05-28T03:36:46;10.15;;;3.35;;
18407;SDS011;9330;52.210;21.174;2023-05-28T03:39:13;3.38;;;2.72;;
18407;SDS011;9330;52.210;21.174;2023-05-28T03:41:42;5.13;;;2.90;;
18407;SDS011;9330;52.210;21.174;2023-05-28T03:44:10;5.90;;;2.85;;
18407;SDS011;9330;52.210;21.174;2023-05-28T03:46:36;5.07;;;3.00;;
18407;SDS011;9330;52.210;21.174;2023-05-28T03:49:03;5.28;;;3.10;;
18407;SDS011;9330;52.210;21.174;2023-05-28T03:51:30;6.90;;;2.70;;
18407;SDS011;9330;52.210;21.174;2023-05-28T03:53:58;4.68;;;2.80;;
18407;SDS011;9330;52.210;21.174;2023-05-28T03:56:25;5.30;;;2.75;;
18407;SDS011;9330;52.210;21.174;2023-05-28T03:58:54;5.47;;;2.70;;
18407;SDS011;9330;52.210;21.174;2023-05-28T04:01:21;5.57;;;2.78;;
18407;SDS011;9330;52.210;21.174;2023-05-28T04:03:48;3.55;;;2.28;;
18407;SDS011;9330;52.210;21.174;2023-05-28T04:06:15;5.05;;;3.00;;
18407;SDS011;9330;52.210;21.174;2023-05-28T04:08:41;4.40;;;2.80;;
18407;SDS011;9330;52.210;21.174;2023-05-28T04:11:08;4.10;;;2.70;;
18407;SDS011;9330;52.210;21.174;2023-05-28T04:13:35;4.90;;;2.53;;
18407;SDS011;9330;52.210;21.174;2023-05-28T04:16:03;4.43;;;2.67;;
18407;SDS011;9330;52.210;21.174;2023-05-28T04:18:32;7.72;;;2.97;;
18407;SDS011;9330;52.210;21.174;2023-05-28T04:20:59;4.45;;;2.38;;
18407;SDS011;9330;52.210;21.174;2023-05-28T04:23:26;6.10;;;3.10;;
18407;SDS011;9330;52.210;21.174;2023-05-28T04:25:53;4.03;;;2.65;;
18407;SDS011;9330;52.210;21.174;2023-05-28T04:28:21;4.78;;;2.50;;
18407;SDS011;9330;52.210;21.174;2023-05-28T04:30:49;5.35;;;2.55;;
18407;SDS011;9330;52.210;21.174;2023-05-28T04:33:17;4.30;;;2.55;;
18407;SDS011;9330;52.210;21.174;2023-05-28T04:35:45;3.70;;;2.70;;
18407;SDS011;9330;52.210;21.174;2023-05-28T04:38:12;3.47;;;2.35;;
18407;SDS011;9330;52.210;21.174;2023-05-28T04:40:39;4.47;;;2.58;;
18407;SDS011;9330;52.210;21.174;2023-05-28T04:43:06;4.00;;;2.28;;
18407;SDS011;9330;52.210;21.174;2023-05-28T04:45:33;3.05;;;2.17;;
18407;SDS011;9330;52.210;21.174;2023-05-28T04:48:00;4.22;;;2.55;;
18407;SDS011;9330;52.210;21.174;2023-05-28T04:50:29;3.90;;;2.15;;
18407;SDS011;9330;52.210;21.174;2023-05-28T04:52:56;5.38;;;2.55;;
18407;SDS011;9330;52.210;21.174;2023-05-28T04:55:22;6.07;;;2.65;;
18407;SDS011;9330;52.210;21.174;2023-05-28T04:57:49;5.13;;;2.20;;
18407;SDS011;9330;52.210;21.174;2023-05-28T05:00:16;4.97;;;2.05;;
18407;SDS011;9330;52.210;21.174;2023-05-28T05:14:33;3.25;;;1.92;;
18407;SDS011;9330;52.210;21.174;2023-05-28T05:17:00;1.98;;;1.52;;
18407;SDS011;9330;52.210;21.174;2023-05-28T05:19:28;4.75;;;1.63;;
18407;SDS011;9330;52.210;21.174;2023-05-28T05:21:55;5.40;;;1.88;;
18407;SDS011;9330;52.210;21.174;2023-05-28T05:24:22;2.85;;;1.73;;
18407;SDS011;9330;52.210;21.174;2023-05-28T05:26:49;2.40;;;1.58;;
18407;SDS011;9330;52.210;21.174;2023-05-28T05:29:15;2.63;;;1.50;;
18407;SDS011;9330;52.210;21.174;2023-05-28T05:31:44;2.17;;;1.67;;
18407;SDS011;9330;52.210;21.174;2023-05-28T05:34:10;3.08;;;1.40;;
18407;SDS011;9330;52.210;21.174;2023-05-28T05:36:37;2.88;;;1.50;;
18407;SDS011;9330;52.210;21.174;2023-05-28T05:39:04;4.53;;;1.88;;
18407;SDS011;9330;52.210;21.174;2023-05-28T05:41:31;2.60;;;1.40;;
18407;SDS011;9330;52.210;21.174;2023-05-28T05:43:58;2.58;;;1.30;;
18407;SDS011;9330;52.210;21.174;2023-05-28T05:46:25;3.10;;;1.23;;
18407;SDS011;9330;52.210;21.174;2023-05-28T05:48:53;4.43;;;1.80;;
18407;SDS011;9330;52.210;21.174;2023-05-28T05:51:19;1.67;;;1.33;;
18407;SDS011;9330;52.210;21.174;2023-05-28T05:53:46;3.83;;;1.52;;
18407;SDS011;9330;52.210;21.174;2023-05-28T05:56:13;4.22;;;1.67;;
18407;SDS011;9330;52.210;21.174;2023-05-28T05:58:40;3.60;;;1.45;;
18407;SDS011;9330;52.210;21.174;2023-05-28T06:01:08;1.73;;;1.10;;
18407;SDS011;9330;52.210;21.174;2023-05-28T06:03:35;4.07;;;1.55;;
18407;SDS011;9330;52.210;21.174;2023-05-28T06:06:04;4.18;;;1.50;;
18407;SDS011;9330;52.210;21.174;2023-05-28T06:08:32;2.50;;;1.27;;
18407;SDS011;9330;52.210;21.174;2023-05-28T06:10:59;6.15;;;1.30;;
18407;SDS011;9330;52.210;21.174;2023-05-28T06:13:26;4.80;;;1.35;;
18407;SDS011;9330;52.210;21.174;2023-05-28T06:15:52;2.30;;;1.23;;
18407;SDS011;9330;52.210;21.174;2023-05-28T06:18:19;8.85;;;1.70;;
18407;SDS011;9330;52.210;21.174;2023-05-28T06:20:46;2.13;;;1.00;;
18407;SDS011;9330;52.210;21.174;2023-05-28T06:23:15;3.55;;;1.30;;
18407;SDS011;9330;52.210;21.174;2023-05-28T06:25:42;6.70;;;1.30;;
18407;SDS011;9330;52.210;21.174;2023-05-28T06:28:10;2.83;;;1.13;;
18407;SDS011;9330;52.210;21.174;2023-05-28T06:30:37;4.25;;;1.20;;
18407;SDS011;9330;52.210;21.174;2023-05-28T06:33:04;2.40;;;0.90;;
18407;SDS011;9330;52.210;21.174;2023-05-28T06:35:31;2.33;;;1.10;;
18407;SDS011;9330;52.210;21.174;2023-05-28T06:37:58;3.42;;;1.00;;
18407;SDS011;9330;52.210;21.174;2023-05-28T06:40:26;1.98;;;1.10;;
18407;SDS011;9330;52.210;21.174;2023-05-28T06:42:54;3.65;;;1.30;;
18407;SDS011;9330;52.210;21.174;2023-05-28T06:45:20;2.67;;;1.10;;
18407;SDS011;9330;52.210;21.174;2023-05-28T06:47:47;2.70;;;0.90;;
18407;SDS011;9330;52.210;21.174;2023-05-28T06:50:14;1.88;;;1.00;;
18407;SDS011;9330;52.210;21.174;2023-05-28T06:52:41;1.73;;;0.90;;
18407;SDS011;9330;52.210;21.174;2023-05-28T06:55:09;2.78;;;1.15;;
18407;SDS011;9330;52.210;21.174;2023-05-28T06:57:38;2.60;;;0.90;;
18407;SDS011;9330;52.210;21.174;2023-05-28T07:00:07;2.55;;;0.90;;
18407;SDS011;9330;52.210;21.174;2023-05-28T07:02:38;2.88;;;0.90;;
18407;SDS011;9330;52.210;21.174;2023-05-28T07:05:05;5.25;;;1.25;;
18407;SDS011;9330;52.210;21.174;2023-05-28T07:07:32;3.75;;;1.10;;
18407;SDS011;9330;52.210;21.174;2023-05-28T07:09:59;2.40;;;1.10;;
18407;SDS011;9330;52.210;21.174;2023-05-28T07:12:26;1.85;;;0.90;;
18407;SDS011;9330;52.210;21.174;2023-05-28T07:14:54;1.88;;;0.90;;
18407;SDS011;9330;52.210;21.174;2023-05-28T07:17:21;3.58;;;0.88;;
18407;SDS011;9330;52.210;21.174;2023-05-28T07:19:48;2.67;;;1.00;;
18407;SDS011;9330;52.210;21.174;2023-05-28T07:22:15;1.75;;;0.80;;
18407;SDS011;9330;52.210;21.174;2023-05-28T07:24:42;3.30;;;0.80;;
18407;SDS011;9330;52.210;21.174;2023-05-28T07:27:08;2.80;;;0.98;;
18407;SDS011;9330;52.210;21.174;2023-05-28T07:29:35;2.38;;;1.00;;
18407;SDS011;9330;52.210;21.174;2023-05-28T07:32:04;2.17;;;0.90;;
18407;SDS011;9330;52.210;21.174;2023-05-28T07:34:31;1.55;;;0.85;;
18407;SDS011;9330;52.210;21.174;2023-05-28T07:36:58;2.03;;;1.00;;
18407;SDS011;9330;52.210;21.174;2023-05-28T07:39:25;1.98;;;0.90;;
18407;SDS011;9330;52.210;21.174;2023-05-28T07:41:52;2.95;;;1.00;;
18407;SDS011;9330;52.210;21.174;2023-05-28T07:44:19;3.35;;;0.73;;
18407;SDS011;9330;52.210;21.174;2023-05-28T07:46:46;2.28;;;0.90;;
18407;SDS011;9330;52.210;21.174;2023-05-28T07:49:14;4.70;;;0.95;;
18407;SDS011;9330;52.210;21.174;2023-05-28T07:51:41;2.20;;;0.98;;
18407;SDS011;9330;52.210;21.174;2023-05-28T07:54:08;2.45;;;0.70;;
18407;SDS011;9330;52.210;21.174;2023-05-28T07:56:35;2.83;;;0.90;;
18407;SDS011;9330;52.210;21.174;2023-05-28T07:59:03;5.40;;;1.20;;
18407;SDS011;9330;52.210;21.174;2023-05-28T08:01:31;6.20;;;1.38;;
18407;SDS011;9330;52.210;21.174;2023-05-28T08:03:59;4.05;;;0.90;;
18407;SDS011;9330;52.210;21.174;2023-05-28T08:06:27;2.13;;;1.00;;
18407;SDS011;9330;52.210;21.174;2023-05-28T08:08:54;2.05;;;1.00;;
18407;SDS011;9330;52.210;21.174;2023-05-28T08:11:21;1.95;;;0.90;;
18407;SDS011;9330;52.210;21.174;2023-05-28T08:13:48;1.95;;;0.98;;
18407;SDS011;9330;52.210;21.174;2023-05-28T08:16:14;2.45;;;1.00;;
18407;SDS011;9330;52.210;21.174;2023-05-28T08:18:42;2.50;;;0.90;;
18407;SDS011;9330;52.210;21.174;2023-05-28T08:21:08;2.40;;;0.80;;
18407;SDS011;9330;52.210;21.174;2023-05-28T08:23:36;5.13;;;0.90;;
18407;SDS011;9330;52.210;21.174;2023-05-28T08:26:04;1.55;;;0.82;;
18407;SDS011;9330;52.210;21.174;2023-05-28T08:28:31;1.90;;;0.90;;
18407;SDS011;9330;52.210;21.174;2023-05-28T08:30:58;2.22;;;1.15;;
18407;SDS011;9330;52.210;21.174;2023-05-28T08:33:25;2.60;;;1.08;;
18407;SDS011;9330;52.210;21.174;2023-05-28T08:35:51;1.92;;;0.90;;
18407;SDS011;9330;52.210;21.174;2023-05-28T08:38:18;4.35;;;1.05;;
18407;SDS011;9330;52.210;21.174;2023-05-28T08:40:49;2.13;;;0.90;;
18407;SDS011;9330;52.210;21.174;2023-05-28T08:43:20;3.25;;;1.20;;
18407;SDS011;9330;52.210;21.174;2023-05-28T08:45:47;2.20;;;1.00;;
18407;SDS011;9330;52.210;21.174;2023-05-28T08:48:16;3.30;;;0.88;;
18407;SDS011;9330;52.210;21.174;2023-05-28T08:50:45;2.17;;;1.10;;
18407;SDS011;9330;52.210;21.174;2023-05-28T08:53:15;1.83;;;1.10;;
18407;SDS011;9330;52.210;21.174;2023-05-28T08:55:48;3.38;;;1.10;;
18407;SDS011;9330;52.210;21.174;2023-05-28T08:58:16;2.55;;;1.00;;
18407;SDS011;9330;52.210;21.174;2023-05-28T09:00:43;5.00;;;0.98;;
18407;SDS011;9330;52.210;21.174;2023-05-28T09:03:10;1.77;;;1.10;;
18407;SDS011;9330;52.210;21.174;2023-05-28T09:05:37;3.30;;;1.40;;
18407;SDS011;9330;52.210;21.174;2023-05-28T09:08:05;4.07;;;1.67;;
18407;SDS011;9330;52.210;21.174;2023-05-28T09:10:33;2.65;;;1.30;;
18407;SDS011;9330;52.210;21.174;2023-05-28T09:13:01;1.77;;;1.05;;
18407;SDS011;9330;52.210;21.174;2023-05-28T09:15:29;3.92;;;1.50;;
18407;SDS011;9330;52.210;21.174;2023-05-28T09:17:58;6.15;;;1.40;;
18407;SDS011;9330;52.210;21.174;2023-05-28T09:20:25;4.15;;;1.33;;
18407;SDS011;9330;52.210;21.174;2023-05-28T09:22:56;2.92;;;1.30;;
18407;SDS011;9330;52.210;21.174;2023-05-28T09:25:25;1.65;;;1.00;;
18407;SDS011;9330;52.210;21.174;2023-05-28T09:27:52;2.97;;;1.15;;
18407;SDS011;9330;52.210;21.174;2023-05-28T09:30:21;3.35;;;1.10;;
18407;SDS011;9330;52.210;21.174;2023-05-28T09:32:55;2.72;;;1.30;;
18407;SDS011;9330;52.210;21.174;2023-05-28T09:35:24;3.10;;;1.10;;
18407;SDS011;9330;52.210;21.174;2023-05-28T09:37:58;2.13;;;0.98;;
18407;SDS011;9330;52.210;21.174;2023-05-28T09:40:26;3.10;;;1.13;;
18407;SDS011;9330;52.210;21.174;2023-05-28T09:42:53;3.40;;;0.90;;
18407;SDS011;9330;52.210;21.174;2023-05-28T09:45:22;5.22;;;1.20;;
18407;SDS011;9330;52.210;21.174;2023-05-28T09:47:50;1.50;;;1.13;;
18407;SDS011;9330;52.210;21.174;2023-05-28T09:50:17;5.45;;;1.20;;
18407;SDS011;9330;52.210;21.174;2023-05-28T09:52:45;2.45;;;1.00;;
18407;SDS011;9330;52.210;21.174;2023-05-28T09:55:13;4.78;;;1.35;;
18407;SDS011;9330;52.210;21.174;2023-05-28T09:57:44;2.67;;;0.90;;
18407;SDS011;9330;52.210;21.174;2023-05-28T10:00:13;1.40;;;0.70;;
18407;SDS011;9330;52.210;21.174;2023-05-28T10:02:54;4.97;;;1.30;;
18407;SDS011;9330;52.210;21.174;2023-05-28T10:05:24;2.00;;;1.00;;
18407;SDS011;9330;52.210;21.174;2023-05-28T10:07:54;2.50;;;0.80;;
18407;SDS011;9330;52.210;21.174;2023-05-28T10:10:22;2.92;;;0.85;;
18407;SDS011;9330;52.210;21.174;2023-05-28T10:12:50;1.67;;;0.90;;
18407;SDS011;9330;52.210;21.174;2023-05-28T10:15:18;2.33;;;0.88;;
18407;SDS011;9330;52.210;21.174;2023-05-28T10:17:45;3.47;;;1.10;;
18407;SDS011;9330;52.210;21.174;2023-05-28T10:20:15;2.15;;;0.82;;
18407;SDS011;9330;52.210;21.174;2023-05-28T10:22:43;1.83;;;0.80;;
18407;SDS011;9330;52.210;21.174;2023-05-28T10:25:10;3.53;;;0.80;;
18407;SDS011;9330;52.210;21.174;2023-05-28T10:27:45;2.08;;;0.85;;
18407;SDS011;9330;52.210;21.174;2023-05-28T10:30:23;1.73;;;0.70;;
18407;SDS011;9330;52.210;21.174;2023-05-28T10:32:57;3.25;;;0.90;;
18407;SDS011;9330;52.210;21.174;2023-05-28T10:35:25;3.58;;;1.05;;
18407;SDS011;9330;52.210;21.174;2023-05-28T10:38:01;2.05;;;0.93;;
18407;SDS011;9330;52.210;21.174;2023-05-28T10:40:29;4.70;;;1.00;;
18407;SDS011;9330;52.210;21.174;2023-05-28T10:42:59;1.77;;;0.93;;
18407;SDS011;9330;52.210;21.174;2023-05-28T10:45:35;1.35;;;0.80;;
18407;SDS011;9330;52.210;21.174;2023-05-28T10:48:02;2.47;;;0.93;;
18407;SDS011;9330;52.210;21.174;2023-05-28T10:50:31;3.83;;;0.93;;
18407;SDS011;9330;52.210;21.174;2023-05-28T10:53:05;2.47;;;0.85;;
18407;SDS011;9330;52.210;21.174;2023-05-28T10:55:48;2.38;;;0.80;;
18407;SDS011;9330;52.210;21.174;2023-05-28T10:58:23;3.72;;;1.00;;
18407;SDS011;9330;52.210;21.174;2023-05-28T11:00:50;1.60;;;0.75;;
18407;SDS011;9330;52.210;21.174;2023-05-28T11:03:28;5.43;;;0.90;;
18407;SDS011;9330;52.210;21.174;2023-05-28T11:06:07;3.37;;;1.00;;
18407;SDS011;9330;52.210;21.174;2023-05-28T11:08:39;6.18;;;0.98;;
18407;SDS011;9330;52.210;21.174;2023-05-28T11:11:07;2.42;;;1.20;;
18407;SDS011;9330;52.210;21.174;2023-05-28T11:13:36;3.13;;;0.90;;
18407;SDS011;9330;52.210;21.174;2023-05-28T11:16:07;3.80;;;1.00;;
18407;SDS011;9330;52.210;21.174;2023-05-28T11:18:35;1.65;;;0.73;;
18407;SDS011;9330;52.210;21.174;2023-05-28T11:21:02;1.55;;;0.88;;
18407;SDS011;9330;52.210;21.174;2023-05-28T11:23:31;2.15;;;0.82;;
18407;SDS011;9330;52.210;21.174;2023-05-28T11:25:58;1.48;;;0.80;;
18407;SDS011;9330;52.210;21.174;2023-05-28T11:28:25;2.55;;;1.02;;
18407;SDS011;9330;52.210;21.174;2023-05-28T11:30:51;4.90;;;1.30;;
18407;SDS011;9330;52.210;21.174;2023-05-28T11:33:25;2.72;;;1.00;;
18407;SDS011;9330;52.210;21.174;2023-05-28T11:35:56;2.28;;;1.27;;
18407;SDS011;9330;52.210;21.174;2023-05-28T11:38:25;1.48;;;0.98;;
18407;SDS011;9330;52.210;21.174;2023-05-28T11:40:59;2.20;;;0.95;;
18407;SDS011;9330;52.210;21.174;2023-05-28T11:43:27;1.58;;;1.00;;
18407;SDS011;9330;52.210;21.174;2023-05-28T11:45:55;1.77;;;1.08;;
18407;SDS011;9330;52.210;21.174;2023-05-28T11:48:23;5.70;;;1.10;;
18407;SDS011;9330;52.210;21.174;2023-05-28T11:50:55;2.38;;;0.90;;
18407;SDS011;9330;52.210;21.174;2023-05-28T11:53:23;2.45;;;0.93;;
18407;SDS011;9330;52.210;21.174;2023-05-28T11:55:50;2.05;;;1.10;;
18407;SDS011;9330;52.210;21.174;2023-05-28T11:58:18;2.90;;;1.00;;
18407;SDS011;9330;52.210;21.174;2023-05-28T12:00:56;3.35;;;1.10;;
18407;SDS011;9330;52.210;21.174;2023-05-28T12:03:24;1.83;;;0.80;;
18407;SDS011;9330;52.210;21.174;2023-05-28T12:05:51;1.33;;;0.80;;
18407;SDS011;9330;52.210;21.174;2023-05-28T12:08:18;4.60;;;1.00;;
18407;SDS011;9330;52.210;21.174;2023-05-28T12:10:45;2.75;;;1.00;;
18407;SDS011;9330;52.210;21.174;2023-05-28T12:13:12;3.47;;;1.17;;
18407;SDS011;9330;52.210;21.174;2023-05-28T12:15:41;0.90;;;0.70;;
18407;SDS011;9330;52.210;21.174;2023-05-28T12:18:08;2.22;;;0.88;;
18407;SDS011;9330;52.210;21.174;2023-05-28T12:20:36;5.82;;;1.08;;
18407;SDS011;9330;52.210;21.174;2023-05-28T12:23:06;1.65;;;1.00;;
18407;SDS011;9330;52.210;21.174;2023-05-28T12:25:37;2.53;;;0.88;;
18407;SDS011;9330;52.210;21.174;2023-05-28T12:28:11;2.80;;;1.00;;
18407;SDS011;9330;52.210;21.174;2023-05-28T12:30:40;5.32;;;1.25;;
18407;SDS011;9330;52.210;21.174;2023-05-28T12:33:09;5.97;;;1.30;;
18407;SDS011;9330;52.210;21.174;2023-05-28T12:35:36;2.22;;;1.10;;
18407;SDS011;9330;52.210;21.174;2023-05-28T12:38:03;3.75;;;1.10;;
18407;SDS011;9330;52.210;21.174;2023-05-28T12:40:29;3.17;;;0.85;;
18407;SDS011;9330;52.210;21.174;2023-05-28T12:42:56;3.85;;;1.05;;
18407;SDS011;9330;52.210;21.174;2023-05-28T12:45:23;1.10;;;0.63;;
18407;SDS011;9330;52.210;21.174;2023-05-28T12:47:51;1.42;;;0.80;;
18407;SDS011;9330;52.210;21.174;2023-05-28T12:50:19;2.47;;;0.88;;
18407;SDS011;9330;52.210;21.174;2023-05-28T12:52:48;3.33;;;1.33;;
18407;SDS011;9330;52.210;21.174;2023-05-28T12:55:15;2.33;;;1.17;;
18407;SDS011;9330;52.210;21.174;2023-05-28T12:57:42;1.40;;;0.82;;
18407;SDS011;9330;52.210;21.174;2023-05-28T13:00:09;2.20;;;0.80;;
18407;SDS011;9330;52.210;21.174;2023-05-28T13:02:37;2.55;;;0.85;;
18407;SDS011;9330;52.210;21.174;2023-05-28T13:05:06;4.05;;;0.90;;
18407;SDS011;9330;52.210;21.174;2023-05-28T13:07:33;3.42;;;1.33;;
18407;SDS011;9330;52.210;21.174;2023-05-28T13:10:00;3.00;;;1.00;;
18407;SDS011;9330;52.210;21.174;2023-05-28T13:12:29;2.70;;;0.95;;
18407;SDS011;9330;52.210;21.174;2023-05-28T13:14:58;1.98;;;0.85;;
18407;SDS011;9330;52.210;21.174;2023-05-28T13:17:25;3.30;;;0.95;;
18407;SDS011;9330;52.210;21.174;2023-05-28T13:19:52;3.30;;;1.10;;
18407;SDS011;9330;52.210;21.174;2023-05-28T13:22:20;2.55;;;0.90;;
18407;SDS011;9330;52.210;21.174;2023-05-28T13:24:47;3.25;;;1.17;;
18407;SDS011;9330;52.210;21.174;2023-05-28T13:27:14;7.00;;;1.30;;
18407;SDS011;9330;52.210;21.174;2023-05-28T13:29:41;2.63;;;0.80;;
18407;SDS011;9330;52.210;21.174;2023-05-28T13:32:08;1.58;;;0.85;;
18407;SDS011;9330;52.210;21.174;2023-05-28T13:34:35;1.92;;;1.05;;
18407;SDS011;9330;52.210;21.174;2023-05-28T13:37:01;3.22;;;1.00;;
18407;SDS011;9330;52.210;21.174;2023-05-28T13:39:30;3.63;;;1.10;;
18407;SDS011;9330;52.210;21.174;2023-05-28T13:41:57;2.17;;;1.15;;
18407;SDS011;9330;52.210;21.174;2023-05-28T13:44:24;4.75;;;1.08;;
18407;SDS011;9330;52.210;21.174;2023-05-28T13:46:50;3.17;;;1.20;;
18407;SDS011;9330;52.210;21.174;2023-05-28T13:49:17;3.58;;;1.17;;
18407;SDS011;9330;52.210;21.174;2023-05-28T13:51:44;3.10;;;1.02;;
18407;SDS011;9330;52.210;21.174;2023-05-28T13:54:12;2.05;;;1.48;;
18407;SDS011;9330;52.210;21.174;2023-05-28T13:56:40;2.45;;;1.08;;
18407;SDS011;9330;52.210;21.174;2023-05-28T13:59:07;4.93;;;1.00;;
18407;SDS011;9330;52.210;21.174;2023-05-28T14:01:34;2.22;;;0.90;;
18407;SDS011;9330;52.210;21.174;2023-05-28T14:04:01;1.73;;;0.80;;
18407;SDS011;9330;52.210;21.174;2023-05-28T14:06:28;3.30;;;1.00;;
18407;SDS011;9330;52.210;21.174;2023-05-28T14:08:56;3.08;;;1.08;;
18407;SDS011;9330;52.210;21.174;2023-05-28T14:11:23;1.25;;;0.82;;
18407;SDS011;9330;52.210;21.174;2023-05-28T14:13:51;1.83;;;1.08;;
18407;SDS011;9330;52.210;21.174;2023-05-28T14:16:18;2.78;;;1.10;;
18407;SDS011;9330;52.210;21.174;2023-05-28T14:18:45;6.28;;;1.30;;
18407;SDS011;9330;52.210;21.174;2023-05-28T14:21:13;2.00;;;0.90;;
18407;SDS011;9330;52.210;21.174;2023-05-28T14:23:41;1.60;;;0.90;;
18407;SDS011;9330;52.210;21.174;2023-05-28T14:26:08;1.80;;;1.25;;
18407;SDS011;9330;52.210;21.174;2023-05-28T14:28:34;3.08;;;1.10;;
18407;SDS011;9330;52.210;21.174;2023-05-28T14:31:03;2.50;;;1.00;;
18407;SDS011;9330;52.210;21.174;2023-05-28T14:33:29;1.98;;;1.05;;
18407;SDS011;9330;52.210;21.174;2023-05-28T14:35:56;2.30;;;1.10;;
18407;SDS011;9330;52.210;21.174;2023-05-28T14:38:23;3.45;;;0.88;;
18407;SDS011;9330;52.210;21.174;2023-05-28T14:40:50;2.53;;;1.10;;
18407;SDS011;9330;52.210;21.174;2023-05-28T14:43:17;0.98;;;0.80;;
18407;SDS011;9330;52.210;21.174;2023-05-28T14:45:44;2.92;;;1.40;;
18407;SDS011;9330;52.210;21.174;2023-05-28T14:48:12;2.97;;;1.00;;
18407;SDS011;9330;52.210;21.174;2023-05-28T14:50:39;3.10;;;1.10;;
18407;SDS011;9330;52.210;21.174;2023-05-28T14:53:05;2.25;;;1.10;;
18407;SDS011;9330;52.210;21.174;2023-05-28T14:55:32;3.55;;;0.93;;
18407;SDS011;9330;52.210;21.174;2023-05-28T14:57:59;1.13;;;0.93;;
18407;SDS011;9330;52.210;21.174;2023-05-28T15:00:26;1.88;;;0.90;;
18407;SDS011;9330;52.210;21.174;2023-05-28T15:02:53;2.08;;;1.10;;
18407;SDS011;9330;52.210;21.174;2023-05-28T15:05:21;3.55;;;1.30;;